Time;durP1;ratioP1;P1;durP2;ratioP2;P2;SDS_P1;SDS_P2;PMS_P1;PMS_P2;Temp;Humidity;BMP_temperature;BMP_pressure;BME280_temperature;BME280_humidity;BME280_pressure;Samples;Min_cycle;Max_cycle;Signal;HPM_P1;HPM_P2
2023/03/28 00:09:16;;;;;;;0.82;0.30;;;2.60;1.00;;;;;;20716443;28;20038;-41
2023/03/28 00:19:23;;;;;;;2.78;0.50;;;2.50;1.00;;;;;;20715965;28;20477;-41
2023/03/28 00:29:24;;;;;;;2.95;0.63;;;2.40;1.00;;;;;;20726012;28;20570;-41
2023/03/28 00:39:26;;;;;;;2.63;1.13;;;2.50;2.00;;;;;;20734355;28;20351;-41
2023/03/28 00:49:28;;;;;;;0.95;0.47;;;2.60;5.80;;;;;;20776966;28;20053;-41
2023/03/28 00:59:32;;;;;;;0.93;0.60;;;2.60;4.90;;;;;;20735085;28;20417;-41
2023/03/28 01:09:34;;;;;;;8.55;1.42;;;2.50;5.60;;;;;;20718344;28;20509;-41
2023/03/28 01:19:57;;;;;;;1.33;0.65;;;2.40;5.90;;;;;;20714806;28;20452;-41
2023/03/28 01:30:21;;;;;;;2.65;0.90;;;2.30;4.30;;;;;;20717396;28;20045;-41
2023/03/28 01:40:43;;;;;;;0.90;0.40;;;2.30;6.20;;;;;;20743434;28;20181;-41
2023/03/28 01:50:52;;;;;;;2.53;0.65;;;2.30;7.20;;;;;;20709702;28;20053;-41
2023/03/28 02:01:15;;;;;;;1.45;0.47;;;2.30;7.00;;;;;;20779361;28;20033;-41
2023/03/28 02:11:18;;;;;;;2.58;1.02;;;2.10;5.30;;;;;;20703679;28;20060;-40
2023/03/28 02:21:30;;;;;;;1.20;0.60;;;2.10;5.20;;;;;;20759660;28;20500;-41
2023/03/28 02:31:31;;;;;;;1.75;0.60;;;1.90;4.50;;;;;;20719341;28;20056;-41
2023/03/28 02:42:05;;;;;;;3.75;1.48;;;1.90;5.70;;;;;;20738756;28;20038;-41
2023/03/28 02:52:13;;;;;;;3.78;1.40;;;1.80;8.20;;;;;;20757435;28;20722;-41
2023/03/28 03:02:16;;;;;;;1.80;0.52;;;1.90;13.90;;;;;;20720898;28;20037;-41
2023/03/28 03:12:17;;;;;;;1.88;0.60;;;2.00;16.60;;;;;;20711904;28;24669;-41
2023/03/28 03:22:19;;;;;;;1.70;0.90;;;2.00;15.30;;;;;;20705150;28;20046;-41
2023/03/28 03:32:20;;;;;;;2.33;1.10;;;1.90;13.20;;;;;;20715559;28;20045;-41
2023/03/28 03:42:21;;;;;;;2.20;1.00;;;1.90;13.60;;;;;;20722017;28;20045;-41
2023/03/28 03:52:22;;;;;;;2.45;0.80;;;1.80;11.80;;;;;;20721656;28;20037;-41
2023/03/28 04:02:25;;;;;;;2.35;0.85;;;1.70;9.90;;;;;;20703829;28;20091;-41
2023/03/28 04:12:26;;;;;;;4.22;1.92;;;1.60;10.70;;;;;;20732889;28;20461;-41
2023/03/28 04:22:28;;;;;;;5.35;1.33;;;1.60;11.40;;;;;;20700289;28;20034;-41
2023/03/28 04:32:34;;;;;;;2.72;1.52;;;1.60;13.40;;;;;;20716119;28;20046;-41
2023/03/28 04:42:37;;;;;;;3.17;1.42;;;1.70;14.00;;;;;;20738734;28;20071;-41
2023/03/28 04:52:38;;;;;;;5.53;1.48;;;1.70;12.60;;;;;;20795013;28;20087;-41
2023/03/28 05:02:39;;;;;;;2.30;1.00;;;1.60;11.60;;;;;;20787224;28;20030;-41
2023/03/28 05:12:41;;;;;;;3.17;1.30;;;1.60;12.80;;;;;;20704300;28;20425;-41
2023/03/28 05:22:42;;;;;;;4.78;1.25;;;1.60;12.90;;;;;;20716355;28;20029;-41
2023/03/28 05:32:43;;;;;;;3.25;1.10;;;1.70;14.70;;;;;;20722656;28;20597;-41
2023/03/28 05:42:44;;;;;;;3.58;2.00;;;1.70;15.20;;;;;;20733794;28;20044;-41
2023/03/28 05:52:46;;;;;;;2.20;1.08;;;1.70;19.70;;;;;;20714743;28;20053;-41
2023/03/28 06:02:49;;;;;;;4.53;1.23;;;1.80;24.80;;;;;;20713591;28;20917;-41
2023/03/28 06:12:53;;;;;;;5.15;1.88;;;2.10;22.10;;;;;;20731868;28;20049;-41
2023/03/28 06:22:54;;;;;;;4.10;1.88;;;2.30;22.40;;;;;;20721528;28;20038;-41
2023/03/28 06:32:55;;;;;;;13.27;1.98;;;2.50;24.50;;;;;;20694604;28;20587;-41
2023/03/28 06:42:56;;;;;;;5.07;2.08;;;2.90;20.60;;;;;;20710454;28;20853;-41
2023/03/28 06:52:57;;;;;;;4.22;1.75;;;3.20;10.20;;;;;;20723696;28;20042;-41
2023/03/28 07:02:59;;;;;;;3.47;1.98;;;3.20;4.40;;;;;;20738193;28;20052;-41
2023/03/28 07:13:00;;;;;;;4.93;1.70;;;3.30;4.20;;;;;;20738631;28;20041;-42
2023/03/28 07:23:02;;;;;;;3.60;1.85;;;3.60;1.00;;;;;;20727793;28;20041;-41
2023/03/28 07:33:03;;;;;;;9.57;2.90;;;3.90;1.00;;;;;;20725265;28;20040;-42
2023/03/28 07:43:04;;;;;;;3.15;1.80;;;4.00;1.00;;;;;;20721765;28;20040;-42
2023/03/28 07:53:05;;;;;;;2.63;1.80;;;4.20;1.00;;;;;;20739113;28;20038;-41
2023/03/28 08:03:07;;;;;;;18.40;2.17;;;4.60;1.00;;;;;;20720279;28;20041;-41
2023/03/28 08:13:09;;;;;;;4.22;2.13;;;5.00;1.00;;;;;;20705247;28;20049;-41
2023/03/28 08:23:10;;;;;;;5.38;1.67;;;5.10;1.00;;;;;;20723247;28;20482;-41
2023/03/28 08:33:11;;;;;;;10.68;1.92;;;5.60;1.00;;;;;;20741173;28;20647;-42
2023/03/28 08:43:45;;;;;;;2.67;1.30;;;6.00;1.00;;;;;;20714695;28;20042;-42
2023/03/28 08:54:06;;;;;;;4.90;1.90;;;6.50;1.00;;;;;;20780487;28;20156;-42
2023/03/28 09:04:29;;;;;;;13.13;2.15;;;6.70;1.00;;;;;;20749401;28;20617;-42
2023/03/28 09:14:52;;;;;;;2.05;0.90;;;6.70;1.00;;;;;;20711561;28;20033;-42
2023/03/28 09:25:06;;;;;;;2.63;1.25;;;6.60;1.00;;;;;;20705157;28;20177;-41
2023/03/28 09:35:20;;;;;;;3.13;1.10;;;6.70;1.00;;;;;;20675446;28;20341;-41
2023/03/28 09:45:36;;;;;;;7.78;1.83;;;6.80;1.00;;;;;;20717622;28;21581;-41
2023/03/28 09:55:37;;;;;;;3.80;1.15;;;6.90;1.00;;;;;;20703328;28;20189;-41
2023/03/28 10:05:39;;;;;;;2.28;1.08;;;6.70;1.00;;;;;;20710977;28;20053;-41
2023/03/28 10:16:02;;;;;;;2.53;1.02;;;6.80;1.00;;;;;;20755268;28;20069;-41
2023/03/28 10:26:10;;;;;;;2.40;1.52;;;6.80;1.00;;;;;;20708903;28;20049;-41
2023/03/28 10:36:28;;;;;;;1.50;0.95;;;6.80;1.00;;;;;;20708622;28;20026;-41
2023/03/28 10:46:35;;;;;;;1.13;0.47;;;7.30;1.00;;;;;;20720466;28;20164;-41
2023/03/28 10:56:57;;;;;;;1.42;0.57;;;7.30;1.00;;;;;;20738754;28;20095;-41
2023/03/28 11:07:16;;;;;;;6.32;1.60;;;7.70;1.00;;;;;;20740487;28;20508;-41
2023/03/28 11:17:34;;;;;;;2.10;0.90;;;7.50;1.00;;;;;;20787141;28;20398;-41
2023/03/28 11:27:59;;;;;;;3.53;1.07;;;8.10;1.00;;;;;;20700876;28;20033;-41
2023/03/28 11:38:23;;;;;;;3.33;1.40;;;9.40;1.00;;;;;;20736171;28;20493;-41
2023/03/28 11:48:53;;;;;;;2.47;1.23;;;8.30;1.00;;;;;;20737317;28;20041;-41
2023/03/28 11:59:01;;;;;;;4.88;1.48;;;7.70;1.00;;;;;;20721716;28;20029;-41
2023/03/28 12:09:29;;;;;;;2.75;1.23;;;7.40;1.00;;;;;;20690293;28;20044;-41
2023/03/28 12:19:50;;;;;;;1.75;0.73;;;7.60;1.00;;;;;;20667733;28;20144;-41
2023/03/28 12:30:26;;;;;;;2.35;0.70;;;7.70;1.00;;;;;;20750318;28;20152;-41
2023/03/28 12:40:53;;;;;;;6.65;0.88;;;7.80;1.00;;;;;;20712398;28;20046;-41
2023/03/28 12:50:57;;;;;;;;;;;8.00;1.00;;;;;;20717325;28;20049;-41
2023/03/28 13:01:21;;;;;;;2.72;0.90;;;8.40;1.00;;;;;;20734863;28;19927;-41
2023/03/28 13:11:35;;;;;;;3.28;1.05;;;8.00;1.00;;;;;;20773627;28;20066;-42
2023/03/28 13:21:42;;;;;;;2.88;1.05;;;8.10;1.00;;;;;;20739552;28;20040;-41
2023/03/28 13:31:43;;;;;;;2.47;0.53;;;8.30;1.00;;;;;;20707480;28;20100;-41
2023/03/28 13:42:31;;;;;;;1.25;0.65;;;9.00;1.00;;;;;;20682700;28;20128;-41
2023/03/28 13:52:47;;;;;;;2.42;0.75;;;9.80;1.00;;;;;;20708650;28;20047;-41
2023/03/28 14:03:02;;;;;;;2.70;1.42;;;9.40;1.00;;;;;;20635622;28;20053;-41
2023/03/28 14:13:26;;;;;;;5.00;0.63;;;9.00;1.00;;;;;;20706749;28;20041;-41
2023/03/28 14:23:31;;;;;;;4.03;0.73;;;8.90;1.00;;;;;;20720858;28;20177;-41
2023/03/28 14:33:36;;;;;;;1.73;0.68;;;8.80;1.00;;;;;;20705147;28;20188;-41
2023/03/28 14:43:37;;;;;;;6.30;1.65;;;8.80;1.00;;;;;;20698627;28;20038;-41
2023/03/28 14:53:43;;;;;;;1.90;0.85;;;8.90;1.00;;;;;;20705680;28;20053;-41
2023/03/28 15:03:58;;;;;;;2.05;1.05;;;9.00;1.00;;;;;;20698003;28;20482;-41
2023/03/28 15:14:32;;;;;;;3.10;1.23;;;9.40;1.00;;;;;;20710479;28;20051;-41
2023/03/28 15:24:35;;;;;;;6.35;0.90;;;9.30;1.00;;;;;;20710318;28;20034;-41
2023/03/28 15:34:45;;;;;;;3.13;1.33;;;9.30;1.00;;;;;;20668408;28;20045;-41
2023/03/28 15:45:18;;;;;;;3.08;1.33;;;9.10;1.00;;;;;;20739805;28;20128;-41
2023/03/28 15:55:41;;;;;;;2.10;0.77;;;8.90;1.00;;;;;;20742160;28;20034;-41
2023/03/28 16:05:49;;;;;;;3.22;1.42;;;8.70;1.00;;;;;;20746118;28;20034;-41
2023/03/28 16:15:51;;;;;;;4.68;1.67;;;8.60;1.00;;;;;;20738490;28;20029;-41
2023/03/28 16:25:57;;;;;;;2.83;1.45;;;8.60;1.00;;;;;;20673084;28;20111;-41
2023/03/28 16:36:18;;;;;;;2.28;1.08;;;8.20;1.00;;;;;;20694575;28;20207;-41
2023/03/28 16:46:19;;;;;;;2.75;1.02;;;8.00;1.00;;;;;;20701818;28;20044;-41
2023/03/28 16:56:24;;;;;;;6.50;2.40;;;7.80;1.00;;;;;;20754949;28;20038;-41
2023/03/28 17:06:26;;;;;;;4.95;2.13;;;7.80;1.00;;;;;;20770511;28;20052;-41
2023/03/28 17:16:27;;;;;;;6.13;2.03;;;7.70;1.00;;;;;;20734578;28;20551;-40
2023/03/28 17:26:28;;;;;;;4.07;1.85;;;7.40;1.00;;;;;;20724044;28;20327;-41
2023/03/28 17:36:29;;;;;;;3.15;1.65;;;7.30;1.00;;;;;;20731399;28;20052;-41
2023/03/28 17:46:30;;;;;;;7.70;2.03;;;7.40;1.00;;;;;;20731216;28;20054;-41
2023/03/28 17:56:31;;;;;;;3.13;1.42;;;7.40;1.00;;;;;;20728271;28;20418;-41
2023/03/28 18:06:32;;;;;;;5.13;2.30;;;7.50;1.00;;;;;;20730225;28;20050;-41
2023/03/28 18:16:34;;;;;;;3.03;1.33;;;7.50;1.00;;;;;;20725277;28;20054;-41
2023/03/28 18:26:35;;;;;;;6.18;2.08;;;7.60;1.00;;;;;;20733285;28;21284;-41
2023/03/28 18:36:39;;;;;;;4.78;1.98;;;7.70;1.00;;;;;;20728759;28;20056;-40
2023/03/28 18:46:40;;;;;;;5.93;1.92;;;7.70;1.00;;;;;;20728446;28;20046;-41
2023/03/28 18:56:41;;;;;;;3.30;1.63;;;7.60;1.00;;;;;;20742741;28;20045;-41
2023/03/28 19:06:43;;;;;;;3.20;1.60;;;7.60;1.00;;;;;;20726221;28;20048;-41
2023/03/28 19:16:44;;;;;;;5.97;1.80;;;7.50;1.00;;;;;;20731916;28;20048;-40
2023/03/28 19:26:45;;;;;;;2.83;1.15;;;7.40;1.00;;;;;;20734388;28;20687;-40
2023/03/28 19:36:46;;;;;;;5.88;1.65;;;7.20;1.00;;;;;;20728342;28;20059;-40
2023/03/28 19:46:47;;;;;;;2.17;0.93;;;7.00;1.00;;;;;;20722859;28;20038;-40
2023/03/28 19:56:48;;;;;;;1.92;1.10;;;7.00;1.00;;;;;;20726447;28;20041;-40
2023/03/28 20:06:50;;;;;;;2.53;1.10;;;6.90;1.00;;;;;;20722452;28;20045;-41
2023/03/28 20:16:51;;;;;;;3.10;1.10;;;6.90;1.00;;;;;;20763966;28;20044;-41
2023/03/28 20:26:52;;;;;;;2.42;1.00;;;6.70;1.00;;;;;;20779913;28;20254;-41
2023/03/28 20:36:55;;;;;;;2.38;1.00;;;6.70;1.00;;;;;;20734049;28;20053;-41
2023/03/28 20:46:56;;;;;;;5.22;1.00;;;6.70;1.00;;;;;;20720310;28;20397;-41
2023/03/28 20:56:57;;;;;;;2.28;0.77;;;6.60;1.00;;;;;;20780969;28;20064;-41
2023/03/28 21:07:00;;;;;;;1.95;1.00;;;6.60;1.00;;;;;;20777784;28;20045;-41
2023/03/28 21:17:06;;;;;;;3.53;1.08;;;6.40;1.00;;;;;;20755289;28;20034;-41
2023/03/28 21:27:07;;;;;;;4.15;1.30;;;6.30;1.00;;;;;;20741175;28;20045;-41
2023/03/28 21:37:08;;;;;;;3.00;0.80;;;6.30;1.00;;;;;;20756842;28;20373;-41
2023/03/28 21:47:09;;;;;;;0.77;0.45;;;6.20;1.00;;;;;;20731822;28;20068;-40
2023/03/28 21:57:10;;;;;;;2.53;0.95;;;6.20;1.00;;;;;;20727370;28;21363;-41
2023/03/28 22:07:11;;;;;;;0.80;0.50;;;6.20;1.00;;;;;;20775316;28;20037;-41
2023/03/28 22:17:12;;;;;;;1.08;0.57;;;6.20;1.00;;;;;;20804568;28;20045;-41
2023/03/28 22:27:15;;;;;;;1.75;0.85;;;6.00;1.00;;;;;;20773884;28;20049;-41
2023/03/28 22:37:16;;;;;;;1.83;0.85;;;6.10;1.00;;;;;;20789836;28;20037;-40
2023/03/28 22:47:17;;;;;;;1.83;0.95;;;6.00;1.00;;;;;;20797743;28;20053;-41
2023/03/28 22:57:18;;;;;;;4.43;0.60;;;6.00;1.00;;;;;;20730427;28;20044;-41
2023/03/28 23:07:19;;;;;;;1.67;0.80;;;6.10;1.00;;;;;;20716200;28;20052;-41
2023/03/28 23:17:21;;;;;;;1.67;0.88;;;6.10;1.00;;;;;;20735409;28;20234;-41
2023/03/28 23:27:22;;;;;;;2.25;0.60;;;6.10;1.00;;;;;;20711096;28;20052;-40
2023/03/28 23:37:26;;;;;;;12.50;2.25;;;6.20;1.00;;;;;;20738785;28;20720;-41
2023/03/28 23:47:27;;;;;;;3.40;1.55;;;6.20;1.00;;;;;;20796943;28;20034;-41
2023/03/28 23:57:28;;;;;;;2.40;0.80;;;6.20;1.00;;;;;;20768957;28;20048;-40
